Time,TemperatureF,DewpointF,PressureIn,WindDirection,WindDirectionDegrees,WindSpeedMPH,WindSpeedGustMPH,Humidity,HourlyPrecipIn,Conditions,Clouds,dailyrainin,SolarRadiationWatts/m^2,SoftwareType,DateUTC
2013-01-19 00:12:00,68.0,62.0,30.21,NNE,13,18.0,28.0,80,0.00,,,0.00,0.000000,,2013-01-19 10:12:00,
2013-01-19 00:22:00,68.0,62.0,30.21,NNE,13,18.0,28.0,80,0.00,,,0.00,0.000000,,2013-01-19 10:22:00,
2013-01-19 00:32:00,68.0,62.0,30.21,NNE,13,18.0,28.0,80,0.00,,,0.00,0.000000,,2013-01-19 10:32:00,
2013-01-19 00:42:00,68.0,62.0,30.21,NNE,13,18.0,28.0,80,0.00,,,0.00,0.000000,,2013-01-19 10:42:00,
2013-01-19 00:52:00,68.0,62.0,30.21,NNE,13,18.0,28.0,80,0.00,,,0.00,0.000000,,2013-01-19 10:52:00,
2013-01-19 02:52:00,68.0,61.0,30.21,NNE,28,15.0,24.0,77,0.00,,,0.00,0.000000,,2013-01-19 12:52:00,
2013-01-19 03:12:00,67.0,58.0,30.20,NNE,20,15.0,28.0,74,0.00,,,0.00,0.000000,,2013-01-19 13:12:00,
2013-01-19 03:22:00,67.0,58.0,30.20,NNE,20,15.0,28.0,74,0.00,,,0.00,0.000000,,2013-01-19 13:22:00,
2013-01-19 03:33:00,67.0,58.0,30.20,NNE,20,15.0,28.0,74,0.00,,,0.00,0.000000,,2013-01-19 13:33:00,
2013-01-19 03:42:00,67.0,58.0,30.20,NNE,20,15.0,28.0,74,0.00,,,0.00,0.000000,,2013-01-19 13:42:00,
2013-01-19 03:52:00,67.0,58.0,30.20,NNE,20,15.0,28.0,74,0.00,,,0.00,0.000000,,2013-01-19 13:52:00,
2013-01-19 04:12:00,66.0,57.0,30.20,NNE,23,11.0,22.0,72,0.00,,,0.00,0.000000,,2013-01-19 14:12:00,
2013-01-19 04:22:00,66.0,57.0,30.20,NNE,23,11.0,22.0,72,0.00,,,0.00,0.000000,,2013-01-19 14:22:00,
2013-01-19 04:33:00,66.0,57.0,30.20,NNE,23,11.0,22.0,72,0.00,,,0.00,0.000000,,2013-01-19 14:33:00,
2013-01-19 04:42:00,66.0,57.0,30.20,NNE,23,11.0,22.0,72,0.00,,,0.00,0.000000,,2013-01-19 14:42:00,
2013-01-19 04:52:00,66.0,57.0,30.20,NNE,23,11.0,22.0,72,0.00,,,0.00,0.000000,,2013-01-19 14:52:00,
2013-01-19 05:12:00,65.0,54.0,30.21,North,9,13.0,20.0,68,0.00,,,0.00,0.000000,,2013-01-19 15:12:00,
2013-01-19 05:22:00,65.0,54.0,30.21,North,9,13.0,20.0,68,0.00,,,0.00,0.000000,,2013-01-19 15:22:00,
2013-01-19 05:33:00,65.0,54.0,30.21,North,9,13.0,20.0,68,0.00,,,0.00,0.000000,,2013-01-19 15:33:00,
2013-01-19 05:42:00,65.0,54.0,30.21,North,9,13.0,20.0,68,0.00,,,0.00,0.000000,,2013-01-19 15:42:00,
2013-01-19 05:52:00,65.0,54.0,30.21,North,9,13.0,20.0,68,0.00,,,0.00,0.000000,,2013-01-19 15:52:00,
2013-01-19 05:53:00,64.0,54.0,30.21,NNE,20,15.0,23.0,70,0.00,,,0.00,0.000000,,2013-01-19 15:53:00,
2013-01-19 06:12:00,64.0,54.0,30.21,NNE,20,15.0,23.0,70,0.00,,,0.00,0.000000,,2013-01-19 16:12:00,
2013-01-19 06:23:00,64.0,54.0,30.21,NNE,20,15.0,23.0,70,0.00,,,0.00,0.000000,,2013-01-19 16:23:00,
2013-01-19 06:33:00,64.0,54.0,30.21,NNE,20,15.0,23.0,70,0.00,,,0.00,0.000000,,2013-01-19 16:33:00,
2013-01-19 06:42:00,64.0,54.0,30.21,NNE,20,15.0,23.0,70,0.00,,,0.00,0.000000,,2013-01-19 16:42:00,
2013-01-19 06:53:00,64.0,53.0,30.23,NNE,24,17.0,27.0,67,0.00,,,0.00,0.000000,,2013-01-19 16:53:00,
2013-01-19 07:34:00,64.0,53.0,30.23,NNE,24,17.0,27.0,67,0.00,,,0.00,0.000000,,2013-01-19 17:34:00,
2013-01-19 07:44:00,64.0,53.0,30.23,NNE,24,17.0,27.0,67,0.00,,,0.00,0.000000,,2013-01-19 17:44:00,
2013-01-19 07:53:00,67.0,54.0,30.25,NNE,31,17.0,29.0,63,0.00,,,-99.99,0.000000,,2013-01-19 17:53:00,
2013-01-19 08:25:00,67.0,54.0,30.25,NNE,31,17.0,29.0,63,0.00,,,-99.99,0.000000,,2013-01-19 18:25:00,
2013-01-19 08:34:00,67.0,54.0,30.25,NNE,31,17.0,29.0,63,0.00,,,-99.99,0.000000,,2013-01-19 18:34:00,
2013-01-19 08:44:00,67.0,54.0,30.25,NNE,31,17.0,29.0,63,0.00,,,-99.99,0.000000,,2013-01-19 18:44:00,
2013-01-19 08:53:00,70.0,54.0,30.27,NNE,18,21.0,32.0,56,0.00,,,0.00,46.000000,,2013-01-19 18:53:00,
2013-01-19 09:17:00,70.0,54.0,30.27,NNE,18,21.0,32.0,56,0.00,,,0.00,46.000000,,2013-01-19 19:17:00,
2013-01-19 09:27:00,70.0,54.0,30.27,NNE,18,21.0,32.0,56,0.00,,,0.00,46.000000,,2013-01-19 19:27:00,
2013-01-19 09:37:00,70.0,54.0,30.27,NNE,18,21.0,32.0,56,0.00,,,0.00,46.000000,,2013-01-19 19:37:00,
2013-01-19 09:44:00,70.0,54.0,30.27,NNE,18,21.0,32.0,56,0.00,,,0.00,46.000000,,2013-01-19 19:44:00,
2013-01-19 09:53:00,70.0,51.0,30.27,NNE,12,23.0,36.0,51,0.00,,,-99.99,287.000000,,2013-01-19 19:53:00,
2013-01-19 10:24:00,70.0,51.0,30.27,NNE,12,23.0,36.0,51,0.00,,,-99.99,287.000000,,2013-01-19 20:24:00,
2013-01-19 10:35:00,70.0,51.0,30.27,NNE,12,23.0,36.0,51,0.00,,,-99.99,287.000000,,2013-01-19 20:35:00,
2013-01-19 10:44:00,70.0,51.0,30.27,NNE,12,23.0,36.0,51,0.00,,,-99.99,287.000000,,2013-01-19 20:44:00,
2013-01-19 10:53:00,73.0,52.0,30.27,NNE,17,21.0,34.0,47,0.00,,,0.00,553.000000,,2013-01-19 20:53:00,
2013-01-19 11:14:00,73.0,52.0,30.27,NNE,17,21.0,34.0,47,0.00,,,0.00,553.000000,,2013-01-19 21:14:00,
2013-01-19 11:24:00,73.0,52.0,30.27,NNE,17,21.0,34.0,47,0.00,,,0.00,553.000000,,2013-01-19 21:24:00,
2013-01-19 11:38:00,73.0,52.0,30.27,NNE,17,21.0,34.0,47,0.00,,,0.00,553.000000,,2013-01-19 21:38:00,
2013-01-19 11:46:00,73.0,52.0,30.27,NNE,17,21.0,34.0,47,0.00,,,0.00,553.000000,,2013-01-19 21:46:00,
2013-01-19 11:53:00,74.0,52.0,30.26,NNE,31,22.0,37.0,46,0.00,,,0.00,774.000000,,2013-01-19 21:53:00,
2013-01-19 12:15:00,74.0,52.0,30.26,NNE,31,22.0,37.0,46,0.00,,,0.00,774.000000,,2013-01-19 22:15:00,
2013-01-19 12:25:00,74.0,52.0,30.26,NNE,31,22.0,37.0,46,0.00,,,0.00,774.000000,,2013-01-19 22:25:00,
2013-01-19 12:34:00,74.0,52.0,30.26,NNE,31,22.0,37.0,46,0.00,,,0.00,774.000000,,2013-01-19 22:34:00,
2013-01-19 12:45:00,74.0,52.0,30.26,NNE,31,22.0,37.0,46,0.00,,,0.00,774.000000,,2013-01-19 22:45:00,
2013-01-19 13:14:00,73.0,52.0,30.23,NE,40,20.0,39.0,47,0.00,,,0.00,921.000000,,2013-01-19 23:14:00,
2013-01-19 13:33:00,73.0,52.0,30.23,NE,40,20.0,39.0,47,0.00,,,0.00,921.000000,,2013-01-19 23:33:00,
2013-01-19 13:44:00,73.0,52.0,30.23,NE,40,20.0,39.0,47,0.00,,,0.00,921.000000,,2013-01-19 23:44:00,
2013-01-19 13:53:00,73.0,52.0,30.20,NE,38,23.0,38.0,47,0.00,,,0.00,984.000000,,2013-01-19 23:53:00,
2013-01-19 14:14:00,73.0,52.0,30.20,NE,38,23.0,38.0,47,0.00,,,0.00,984.000000,,2013-01-20 00:14:00,
2013-01-19 14:24:00,73.0,52.0,30.20,NE,38,23.0,38.0,47,0.00,,,0.00,984.000000,,2013-01-20 00:24:00,
2013-01-19 14:34:00,73.0,52.0,30.20,NE,38,23.0,38.0,47,0.00,,,0.00,984.000000,,2013-01-20 00:34:00,
2013-01-19 14:44:00,73.0,52.0,30.20,NE,38,23.0,38.0,47,0.00,,,0.00,984.000000,,2013-01-20 00:44:00,
2013-01-19 14:53:00,75.0,54.0,30.19,NE,40,20.0,33.0,48,0.00,,,-99.99,960.000000,,2013-01-20 00:53:00,
2013-01-19 15:17:00,75.0,54.0,30.19,NE,40,20.0,33.0,48,0.00,,,-99.99,960.000000,,2013-01-20 01:17:00,
2013-01-19 15:24:00,75.0,54.0,30.19,NE,40,20.0,33.0,48,0.00,,,-99.99,960.000000,,2013-01-20 01:24:00,
2013-01-19 15:34:00,75.0,54.0,30.19,NE,40,20.0,33.0,48,0.00,,,-99.99,960.000000,,2013-01-20 01:34:00,
2013-01-19 15:44:00,75.0,54.0,30.19,NE,40,20.0,33.0,48,0.00,,,-99.99,960.000000,,2013-01-20 01:44:00,
2013-01-19 15:53:00,73.0,52.0,30.20,NNE,23,17.0,31.0,47,0.00,,,0.00,850.000000,,2013-01-20 01:53:00,
2013-01-19 16:14:00,73.0,52.0,30.20,NNE,23,17.0,31.0,47,0.00,,,0.00,850.000000,,2013-01-20 02:14:00,
2013-01-19 16:34:00,73.0,52.0,30.20,NNE,23,17.0,31.0,47,0.00,,,0.00,850.000000,,2013-01-20 02:34:00,
2013-01-19 16:43:00,73.0,52.0,30.20,NNE,23,17.0,31.0,47,0.00,,,0.00,850.000000,,2013-01-20 02:43:00,
2013-01-19 17:14:00,73.0,56.0,30.22,NNE,28,17.0,30.0,55,0.00,,,0.00,671.000000,,2013-01-20 03:14:00,
2013-01-19 17:24:00,73.0,56.0,30.22,NNE,28,17.0,30.0,55,0.00,,,0.00,671.000000,,2013-01-20 03:24:00,
2013-01-19 17:44:00,73.0,56.0,30.22,NNE,28,17.0,30.0,55,0.00,,,0.00,671.000000,,2013-01-20 03:44:00,
2013-01-19 17:52:00,73.0,56.0,30.22,NNE,28,17.0,30.0,55,0.00,,,0.00,671.000000,,2013-01-20 03:52:00,
2013-01-19 17:53:00,69.0,56.0,30.24,NNE,22,18.0,30.0,64,0.00,,,0.00,428.000000,,2013-01-20 03:53:00,
2013-01-19 18:24:00,69.0,56.0,30.24,NNE,22,18.0,30.0,64,0.00,,,0.00,428.000000,,2013-01-20 04:24:00,
2013-01-19 18:34:00,69.0,56.0,30.24,NNE,22,18.0,30.0,64,0.00,,,0.00,428.000000,,2013-01-20 04:34:00,
2013-01-19 18:43:00,69.0,56.0,30.24,NNE,22,18.0,30.0,64,0.00,,,0.00,428.000000,,2013-01-20 04:43:00,
2013-01-19 19:12:00,68.0,54.0,30.25,NNE,27,21.0,36.0,62,0.00,,,0.00,115.000000,,2013-01-20 05:12:00,
2013-01-19 19:22:00,68.0,54.0,30.25,NNE,27,21.0,36.0,62,0.00,,,0.00,115.000000,,2013-01-20 05:22:00,
2013-01-19 19:32:00,68.0,54.0,30.25,NNE,27,21.0,36.0,62,0.00,,,0.00,115.000000,,2013-01-20 05:32:00,
2013-01-19 19:42:00,68.0,54.0,30.25,NNE,27,21.0,36.0,62,0.00,,,0.00,115.000000,,2013-01-20 05:42:00,
2013-01-19 19:52:00,68.0,54.0,30.25,NNE,27,21.0,36.0,62,0.00,,,0.00,115.000000,,2013-01-20 05:52:00,
2013-01-19 20:12:00,69.0,55.0,30.27,NNE,26,19.0,36.0,60,0.00,,,0.00,5.000000,,2013-01-20 06:12:00,
2013-01-19 20:22:00,69.0,55.0,30.27,NNE,26,19.0,36.0,60,0.00,,,0.00,5.000000,,2013-01-20 06:22:00,
2013-01-19 20:33:00,69.0,55.0,30.27,NNE,26,19.0,36.0,60,0.00,,,0.00,5.000000,,2013-01-20 06:33:00,
2013-01-19 20:42:00,69.0,55.0,30.27,NNE,26,19.0,36.0,60,0.00,,,0.00,5.000000,,2013-01-20 06:42:00,
2013-01-19 20:52:00,69.0,55.0,30.27,NNE,26,19.0,36.0,60,0.00,,,0.00,5.000000,,2013-01-20 06:52:00,
2013-01-19 21:12:00,67.0,54.0,30.30,NNE,30,18.0,34.0,62,0.00,,,0.00,0.000000,,2013-01-20 07:12:00,
2013-01-19 21:22:00,67.0,54.0,30.30,NNE,30,18.0,34.0,62,0.00,,,0.00,0.000000,,2013-01-20 07:22:00,
2013-01-19 21:32:00,67.0,54.0,30.30,NNE,30,18.0,34.0,62,0.00,,,0.00,0.000000,,2013-01-20 07:32:00,
2013-01-19 21:42:00,67.0,54.0,30.30,NNE,30,18.0,34.0,62,0.00,,,0.00,0.000000,,2013-01-20 07:42:00,
2013-01-19 21:52:00,67.0,54.0,30.30,NNE,30,18.0,34.0,62,0.00,,,0.00,0.000000,,2013-01-20 07:52:00,
2013-01-19 22:22:00,68.0,56.0,30.30,NNE,22,17.0,28.0,65,0.00,,,0.00,0.000000,,2013-01-20 08:22:00,
2013-01-19 22:32:00,68.0,56.0,30.30,NNE,22,17.0,28.0,65,0.00,,,0.00,0.000000,,2013-01-20 08:32:00,
2013-01-19 22:42:00,68.0,56.0,30.30,NNE,22,17.0,28.0,65,0.00,,,0.00,0.000000,,2013-01-20 08:42:00,
2013-01-19 22:52:00,68.0,56.0,30.30,NNE,22,17.0,28.0,65,0.00,,,0.00,0.000000,,2013-01-20 08:52:00,
2013-01-19 23:12:00,66.0,54.0,30.27,NNE,22,23.0,35.0,66,0.00,,,0.00,0.000000,,2013-01-20 09:12:00,
2013-01-19 23:22:00,66.0,54.0,30.27,NNE,22,23.0,35.0,66,0.00,,,0.00,0.000000,,2013-01-20 09:22:00,
2013-01-19 23:33:00,66.0,54.0,30.27,NNE,22,23.0,35.0,66,0.00,,,0.00,0.000000,,2013-01-20 09:33:00,
2013-01-19 23:42:00,66.0,54.0,30.27,NNE,22,23.0,35.0,66,0.00,,,0.00,0.000000,,2013-01-20 09:42:00,
2013-01-19 23:52:00,66.0,54.0,30.27,NNE,22,23.0,35.0,66,0.00,,,0.00,0.000000,,2013-01-20 09:52:00,